This is the latest recevied weather packets stored in our database for station/object AC5JC-1. If no packets are shown the sender has not sent any weather packets the latest 10 day(s).
| Time | Temp. | Humidity | Pressure | Rain* | Wind** | Luminosity | Snow |
|---|---|---|---|---|---|---|---|
| 1777701038 | 11.67° C | 94% | 1019.9 hPa | 0 mm | - | 0 W/m² | - |
| 1777699835 | 12.22° C | 94% | 1019.9 hPa | 0 mm | - | 0 W/m² | - |
| 1777693256 | 13.89° C | 94% | 1019.5 hPa | 0 mm | - | 0 W/m² | - |
| 1777691433 | 13.89° C | 92% | 1019.4 hPa | 0 mm | - | 0 W/m² | - |
| 1777689960 | 14.44° C | 91% | 1019 hPa | 0 mm | - | 0 W/m² | - |
| 1777686396 | 15° C | 87% | 1018 hPa | 0 mm | - | 0 W/m² | - |
| 1777685135 | 15.56° C | 85% | 1017.9 hPa | 0 mm | - | 0 W/m² | - |
| 1777682425 | 16.67° C | 81% | 1016.8 hPa | 0 mm | - | 10 W/m² | - |
| 1777680973 | 16.67° C | 80% | 1016.6 hPa | 0 mm | - | 39 W/m² | - |
| 1777680044 | 16.67° C | 76% | 1016.6 hPa | 0 mm | - | 40 W/m² | - |
| 1777678834 | 17.22° C | 70% | 1016.2 hPa | 0 mm | - | 44 W/m² | - |
| 1777678521 | 17.22° C | 70% | 1016.2 hPa | 0 mm | - | 49 W/m² | - |
| 1777677368 | 17.78° C | 68% | 1016.3 hPa | 0 mm | - | 69 W/m² | - |
| 1777676152 | 17.78° C | 67% | 1016.1 hPa | 0 mm | - | 95 W/m² | - |
| 1777674398 | 17.78° C | 64% | 1016.1 hPa | 0 mm | - | 132 W/m² | - |
| 1777674058 | 17.78° C | 65% | 1016.2 hPa | 0 mm | - | 140 W/m² | - |
| 1777673435 | 17.78° C | 64% | 1015.9 hPa | 0 mm | - | 151 W/m² | - |
| 1777673164 | 17.78° C | 65% | 1015.9 hPa | 0 mm | - | 160 W/m² | - |
| 1777668934 | 17.22° C | 67% | 1017 hPa | 0 mm | - | 139 W/m² | - |
| 1777664745 | 16.67° C | 63% | 1017.1 hPa | 0 mm | - | 101 W/m² | - |
| 1777660552 | 16.67° C | 66% | 1016.8 hPa | 0 mm | - | 158 W/m² | - |
| 1777659035 | 17.22° C | 66% | 1017 hPa | 0 mm | - | 248 W/m² | - |
| 1777656036 | 17.22° C | 70% | 1017.6 hPa | 0.25 mm | - | 436 W/m² | - |
| 1777655786 | 17.78° C | 69% | 1017.6 hPa | 0.25 mm | - | 444 W/m² | - |
| 1777651278 | 15.56° C | 79% | 1018.2 hPa | 0 mm | - | 254 W/m² | - |
* Rain latest hour (hover to see other rain measurements)
** Current wind speed in m/s (hover to see current wind gust speed)